createdAt,value
2022-08-12T00:00:01.439Z,18.4
2022-08-12T00:01:01.995Z,18.4
2022-08-12T00:02:02.288Z,18.4
2022-08-12T00:03:01.162Z,18.4
2022-08-12T00:04:01.727Z,18.5
2022-08-12T00:05:01.337Z,18.5
2022-08-12T00:06:04.416Z,18.6
2022-08-12T00:07:01.438Z,18.6
2022-08-12T00:08:02.023Z,18.6
2022-08-12T00:09:01.607Z,18.7
2022-08-12T00:10:01.219Z,18.6
2022-08-12T00:11:09.621Z,18.6
2022-08-12T00:12:01.307Z,18.3
2022-08-12T00:13:01.892Z,18.2
2022-08-12T00:14:01.478Z,18.2
2022-08-12T00:15:02.082Z,18.3
2022-08-12T00:16:01.685Z,18.2
2022-08-12T00:17:01.268Z,17.9
2022-08-12T00:18:01.849Z,18
2022-08-12T00:19:01.431Z,18.1
2022-08-12T00:20:02.035Z,18.2
2022-08-12T00:21:01.618Z,18
2022-08-12T00:22:01.222Z,18
2022-08-12T00:23:01.783Z,17.8
2022-08-12T00:24:01.369Z,18
2022-08-12T00:25:01.952Z,17.8
2022-08-12T00:26:20.396Z,17.6
2022-08-12T00:27:02.340Z,17.8
2022-08-12T00:28:01.922Z,17.8
2022-08-12T00:29:01.361Z,17.6
2022-08-12T00:30:01.949Z,17.5
2022-08-12T00:31:01.595Z,17.5
2022-08-12T00:32:01.596Z,17.3
2022-08-12T00:33:01.531Z,17.4
2022-08-12T00:34:01.825Z,17.4
2022-08-12T00:35:01.982Z,17.3
2022-08-12T00:36:01.524Z,17.4
2022-08-12T00:37:07.261Z,17.5
2022-08-12T00:38:01.897Z,17.5
2022-08-12T00:39:01.418Z,17.6
2022-08-12T00:40:02.012Z,17.7
2022-08-12T00:41:01.554Z,17.5
2022-08-12T00:42:01.139Z,17.4
2022-08-12T00:43:01.715Z,17.6
2022-08-12T00:44:01.295Z,17.5
2022-08-12T00:45:01.893Z,17.3
2022-08-12T00:46:01.474Z,17.1
2022-08-12T00:47:02.056Z,17
2022-08-12T00:48:01.637Z,16.9
2022-08-12T00:49:01.221Z,16.9
2022-08-12T00:50:01.823Z,16.8
2022-08-12T00:51:01.406Z,16.7
2022-08-12T00:52:01.989Z,16.7
2022-08-12T00:53:01.572Z,16.8
2022-08-12T00:54:01.154Z,16.7
2022-08-12T00:55:01.763Z,16.7
2022-08-12T00:56:01.347Z,16.7
2022-08-12T00:57:01.930Z,16.7
2022-08-12T00:58:01.512Z,16.6
2022-08-12T00:59:02.093Z,16.6
2022-08-12T01:00:01.696Z,16.6
2022-08-12T01:01:01.333Z,16.6
2022-08-12T01:02:11.805Z,16.6
2022-08-12T01:03:01.396Z,16.5
2022-08-12T01:04:01.979Z,16.6
2022-08-12T01:05:01.189Z,16.7
2022-08-12T01:06:01.794Z,16.8
2022-08-12T01:07:01.380Z,16.7
2022-08-12T01:08:01.960Z,16.8
2022-08-12T01:09:01.591Z,16.6
2022-08-12T01:10:01.194Z,16.5
2022-08-12T01:11:01.755Z,16.5
2022-08-12T01:12:01.336Z,16.5
2022-08-12T01:13:07.148Z,16.5
2022-08-12T01:14:01.475Z,16.4
2022-08-12T01:15:02.066Z,16.3
2022-08-12T01:16:01.744Z,16.3
2022-08-12T01:17:01.298Z,16.4
2022-08-12T01:18:01.879Z,16.5
2022-08-12T01:19:01.450Z,16.3
2022-08-12T01:20:02.042Z,16.4
2022-08-12T01:21:01.637Z,16.6
2022-08-12T01:22:01.219Z,16.8
2022-08-12T01:23:01.798Z,16.9
2022-08-12T01:24:22.836Z,16.8
2022-08-12T01:25:01.942Z,16.6
2022-08-12T01:26:01.528Z,16.6
2022-08-12T01:27:02.131Z,16.5
2022-08-12T01:28:01.714Z,16.4
2022-08-12T01:29:01.319Z,16.3
2022-08-12T01:30:01.880Z,16.3
2022-08-12T01:31:01.462Z,16.2
2022-08-12T01:32:01.636Z,16.3
2022-08-12T01:33:01.223Z,16.2
2022-08-12T01:34:00.808Z,16.3
2022-08-12T01:35:01.393Z,16.1
2022-08-12T01:36:08.076Z,16.3
2022-08-12T01:37:01.541Z,16.2
2022-08-12T01:38:01.142Z,16.3
2022-08-12T01:39:00.724Z,16.2
2022-08-12T01:40:31.023Z,16.4
2022-08-12T01:41:00.928Z,16.6
2022-08-12T01:42:01.559Z,16.8
2022-08-12T01:43:01.142Z,16.8
2022-08-12T01:44:01.419Z,16.6
2022-08-12T01:45:01.000Z,16.4
2022-08-12T01:46:01.583Z,16.2
2022-08-12T01:47:01.184Z,16.2
2022-08-12T01:48:00.767Z,16.1
2022-08-12T01:49:01.307Z,16.3
2022-08-12T01:50:00.891Z,16.5
2022-08-12T01:51:01.495Z,16.6
2022-08-12T01:52:16.227Z,16.4
2022-08-12T01:53:01.574Z,16.3
2022-08-12T01:54:01.154Z,16.1
2022-08-12T01:55:00.736Z,16
2022-08-12T01:56:01.316Z,16.1
2022-08-12T01:57:00.913Z,16.1
2022-08-12T01:58:01.559Z,16
2022-08-12T01:59:01.178Z,16
2022-08-12T02:00:00.726Z,15.9
2022-08-12T02:01:01.532Z,15.8
2022-08-12T02:02:00.971Z,15.8
2022-08-12T02:03:01.565Z,15.7
2022-08-12T02:04:01.169Z,15.7
2022-08-12T02:05:00.750Z,15.7
2022-08-12T02:06:01.333Z,15.7
2022-08-12T02:07:00.914Z,15.7
2022-08-12T02:08:01.522Z,15.7
2022-08-12T02:09:01.106Z,15.7
2022-08-12T02:10:01.343Z,15.7
2022-08-12T02:11:00.925Z,15.7
2022-08-12T02:12:03.038Z,15.7
2022-08-12T02:13:01.074Z,15.7
2022-08-12T02:14:00.666Z,15.8
2022-08-12T02:15:01.234Z,15.7
2022-08-12T02:16:00.816Z,15.8
2022-08-12T02:17:01.386Z,15.8
2022-08-12T02:18:00.987Z,15.8
2022-08-12T02:19:01.560Z,15.7
2022-08-12T02:20:01.142Z,15.7
2022-08-12T02:21:00.746Z,15.8
2022-08-12T02:22:01.304Z,15.8
2022-08-12T02:23:00.845Z,15.8
2022-08-12T02:24:01.444Z,15.7
2022-08-12T02:25:01.026Z,15.8
2022-08-12T02:26:01.611Z,15.8
2022-08-12T02:27:01.202Z,15.9
2022-08-12T02:28:00.784Z,15.9
2022-08-12T02:29:01.344Z,15.8
2022-08-12T02:30:00.950Z,15.8
2022-08-12T02:31:01.513Z,15.8
2022-08-12T02:32:01.153Z,15.8
2022-08-12T02:33:00.675Z,15.7
2022-08-12T02:34:01.252Z,15.8
2022-08-12T02:35:00.861Z,15.6
2022-08-12T02:36:01.427Z,15.5
2022-08-12T02:37:02.718Z,15.6
2022-08-12T02:38:01.556Z,15.5
2022-08-12T02:39:01.150Z,15.4
2022-08-12T02:40:00.791Z,15.4
2022-08-12T02:41:01.319Z,15.4
2022-08-12T02:42:00.917Z,15.3
2022-08-12T02:43:01.478Z,15.5
2022-08-12T02:44:01.058Z,15.5
2022-08-12T02:45:00.639Z,15.7
2022-08-12T02:46:01.242Z,15.5
2022-08-12T02:47:00.824Z,15.4
2022-08-12T02:48:01.501Z,15.6
2022-08-12T02:49:01.065Z,15.5
2022-08-12T02:50:00.646Z,15.4
2022-08-12T02:51:01.250Z,15.3
2022-08-12T02:52:00.835Z,15.3
2022-08-12T02:53:01.418Z,15.3
2022-08-12T02:54:03.093Z,15.2
2022-08-12T02:55:01.560Z,15.3
2022-08-12T02:56:01.201Z,15.2
2022-08-12T02:57:00.811Z,15.2
2022-08-12T02:58:04.147Z,15.3
2022-08-12T02:59:00.908Z,15.3
2022-08-12T03:00:01.489Z,15.4
2022-08-12T03:01:01.174Z,15.4
2022-08-12T03:02:00.668Z,15.3
2022-08-12T03:03:01.235Z,15.2
2022-08-12T03:04:00.813Z,15.2
2022-08-12T03:05:01.392Z,15.1
2022-08-12T03:06:00.976Z,15.1
2022-08-12T03:07:01.567Z,15.2
2022-08-12T03:08:01.164Z,15.3
2022-08-12T03:09:01.291Z,15.2
2022-08-12T03:10:03.951Z,15.3
2022-08-12T03:11:01.732Z,15.2
2022-08-12T03:12:01.362Z,15.3
2022-08-12T03:13:00.642Z,15.2
2022-08-12T03:14:01.233Z,15.2
2022-08-12T03:15:01.416Z,15
2022-08-12T03:16:00.997Z,15
2022-08-12T03:17:01.597Z,15.3
2022-08-12T03:18:23.735Z,15.2
2022-08-12T03:19:00.715Z,15.4
2022-08-12T03:20:08.576Z,15.6
2022-08-12T03:21:00.853Z,15.9
2022-08-12T03:22:09.041Z,16
2022-08-12T03:23:00.972Z,15.8
2022-08-12T03:24:01.576Z,15.9
2022-08-12T03:25:01.154Z,15.7
2022-08-12T03:26:01.051Z,15.5
2022-08-12T03:27:01.320Z,15.4
2022-08-12T03:28:00.899Z,15.3
2022-08-12T03:29:01.499Z,15.3
2022-08-12T03:30:01.079Z,15.3
2022-08-12T03:31:00.680Z,15.2
2022-08-12T03:32:01.241Z,15
2022-08-12T03:33:00.874Z,15.1
2022-08-12T03:34:02.990Z,15
2022-08-12T03:35:00.834Z,15
2022-08-12T03:36:01.417Z,15.1
2022-08-12T03:37:00.997Z,15.3
2022-08-12T03:38:01.582Z,15.2
2022-08-12T03:39:01.184Z,15.2
2022-08-12T03:40:00.785Z,15.1
2022-08-12T03:41:01.347Z,15
2022-08-12T03:42:00.953Z,15
2022-08-12T03:43:01.515Z,15
2022-08-12T03:44:01.098Z,15
2022-08-12T03:45:00.675Z,15.1
2022-08-12T03:46:01.242Z,15.1
2022-08-12T03:47:00.844Z,15
2022-08-12T03:48:01.409Z,15.2
2022-08-12T03:49:00.998Z,15.2
2022-08-12T03:50:01.574Z,15.1
2022-08-12T03:51:01.183Z,15.1
2022-08-12T03:52:00.765Z,15.1
2022-08-12T03:53:01.345Z,15.1
2022-08-12T03:54:00.925Z,15
2022-08-12T03:55:01.506Z,15
2022-08-12T03:56:01.110Z,14.9
2022-08-12T03:57:00.669Z,14.9
2022-08-12T03:58:01.277Z,15.1
2022-08-12T03:59:00.862Z,15.3
2022-08-12T04:00:01.443Z,15.2
2022-08-12T04:01:01.095Z,15
2022-08-12T04:02:01.628Z,15
2022-08-12T04:03:01.211Z,14.9
2022-08-12T04:04:00.793Z,14.9
2022-08-12T04:05:01.374Z,14.9
2022-08-12T04:06:00.955Z,14.8
2022-08-12T04:07:01.562Z,14.9
2022-08-12T04:08:01.145Z,14.8
2022-08-12T04:09:00.749Z,14.9
2022-08-12T04:10:01.311Z,14.9
2022-08-12T04:11:00.894Z,14.9
2022-08-12T04:12:01.478Z,14.8
2022-08-12T04:13:01.062Z,14.8
2022-08-12T04:14:01.665Z,14.8
2022-08-12T04:15:01.250Z,14.8
2022-08-12T04:16:00.834Z,14.8
2022-08-12T04:17:01.415Z,15
2022-08-12T04:18:07.136Z,14.9
2022-08-12T04:19:01.558Z,15.2
2022-08-12T04:20:01.145Z,15.1
2022-08-12T04:21:00.742Z,15.3
2022-08-12T04:22:03.411Z,15.2
2022-08-12T04:23:00.874Z,15.2
2022-08-12T04:24:01.455Z,15.1
2022-08-12T04:25:01.297Z,15.1
2022-08-12T04:26:01.634Z,15.1
2022-08-12T04:27:01.215Z,15.2
2022-08-12T04:28:09.617Z,15.3
2022-08-12T04:29:01.335Z,15.2
2022-08-12T04:30:17.501Z,15.1
2022-08-12T04:31:01.497Z,15
2022-08-12T04:32:01.078Z,14.9
2022-08-12T04:33:00.658Z,14.9
2022-08-12T04:34:01.289Z,14.8
2022-08-12T04:35:00.887Z,14.8
2022-08-12T04:36:01.469Z,15
2022-08-12T04:37:01.052Z,15.1
2022-08-12T04:38:01.637Z,15.3
2022-08-12T04:39:01.219Z,15.4
2022-08-12T04:40:00.799Z,15.4
2022-08-12T04:41:01.402Z,15.4
2022-08-12T04:42:00.985Z,15.4
2022-08-12T04:43:01.957Z,15.3
2022-08-12T04:44:02.550Z,15.3
2022-08-12T04:45:01.234Z,15.5
2022-08-12T04:46:01.413Z,15.6
2022-08-12T04:47:00.996Z,15.8
2022-08-12T04:48:01.576Z,16
2022-08-12T04:49:01.173Z,16.2
2022-08-12T04:50:00.756Z,16.2
2022-08-12T04:51:01.359Z,16.4
2022-08-12T04:52:00.943Z,16.4
2022-08-12T04:53:01.527Z,16.2
2022-08-12T04:54:01.147Z,16.3
2022-08-12T04:55:00.729Z,16.4
2022-08-12T04:56:01.331Z,16.5
2022-08-12T04:57:03.427Z,16.6
2022-08-12T04:58:01.463Z,16.6
2022-08-12T04:59:01.044Z,16.8
2022-08-12T05:00:01.629Z,16.8
2022-08-12T05:01:01.232Z,16.8
2022-08-12T05:02:00.846Z,16.8
2022-08-12T05:03:01.512Z,16.8
2022-08-12T05:04:01.032Z,16.9
2022-08-12T05:05:01.607Z,16.9
2022-08-12T05:06:01.187Z,17
2022-08-12T05:07:00.768Z,17.1
2022-08-12T05:08:01.375Z,17.2
2022-08-12T05:09:01.119Z,17.1
2022-08-12T05:10:02.132Z,17.2
2022-08-12T05:11:01.042Z,17
2022-08-12T05:12:01.623Z,17.1
2022-08-12T05:13:01.226Z,17.3
2022-08-12T05:14:00.829Z,17.3
2022-08-12T05:15:01.394Z,17.1
2022-08-12T05:16:02.737Z,17.3
2022-08-12T05:17:01.539Z,17.2
2022-08-12T05:18:02.003Z,17.4
2022-08-12T05:19:00.748Z,17.5
2022-08-12T05:20:01.328Z,17.5
2022-08-12T05:21:00.939Z,17.6
2022-08-12T05:22:01.530Z,17.6
2022-08-12T05:23:08.590Z,17.7
2022-08-12T05:24:00.834Z,17.8
2022-08-12T05:25:01.277Z,17.8
2022-08-12T05:26:01.578Z,17.8
2022-08-12T05:27:01.156Z,18
2022-08-12T05:28:00.759Z,18.1
2022-08-12T05:29:01.342Z,18.1
2022-08-12T05:30:06.061Z,18.1
2022-08-12T05:31:01.525Z,18.2
2022-08-12T05:32:01.142Z,18.3
2022-08-12T05:33:00.711Z,18.4
2022-08-12T05:34:01.274Z,18.3
2022-08-12T05:35:00.907Z,18.5
2022-08-12T05:36:01.444Z,18.5
2022-08-12T05:37:01.029Z,18.5
2022-08-12T05:38:01.622Z,18.6
2022-08-12T05:39:01.205Z,18.7
2022-08-12T05:40:00.868Z,18.6
2022-08-12T05:41:01.367Z,18.7
2022-08-12T05:42:00.950Z,18.7
2022-08-12T05:43:01.546Z,18.8
2022-08-12T05:44:01.127Z,18.8
2022-08-12T05:45:00.707Z,18.9
2022-08-12T05:46:01.291Z,18.9
2022-08-12T05:47:00.872Z,18.9
2022-08-12T05:48:01.475Z,18.9
2022-08-12T05:49:01.288Z,18.9
2022-08-12T05:50:01.633Z,19.1
2022-08-12T05:51:01.215Z,19.1
2022-08-12T05:52:00.819Z,19.3
2022-08-12T05:53:01.386Z,19.3
2022-08-12T05:54:01.053Z,19.4
2022-08-12T05:55:01.630Z,19.4
2022-08-12T05:56:01.210Z,19.5
2022-08-12T05:57:00.817Z,19.6
2022-08-12T05:58:01.382Z,19.6
2022-08-12T05:59:00.966Z,19.7
2022-08-12T06:00:01.575Z,19.8
2022-08-12T06:01:01.158Z,19.9
2022-08-12T06:02:08.507Z,20
2022-08-12T06:03:01.518Z,20
2022-08-12T06:04:00.991Z,20
2022-08-12T06:05:01.594Z,20.1
2022-08-12T06:06:01.175Z,20.2
2022-08-12T06:07:00.757Z,20.2
2022-08-12T06:08:03.013Z,20.2
2022-08-12T06:09:00.739Z,20.3
2022-08-12T06:10:01.339Z,20.4
2022-08-12T06:11:00.922Z,20.5
2022-08-12T06:12:05.296Z,20.5
2022-08-12T06:13:01.068Z,20.6
2022-08-12T06:14:01.670Z,20.7
2022-08-12T06:15:01.245Z,20.6
2022-08-12T06:16:00.825Z,20.8
2022-08-12T06:17:01.405Z,20.8
2022-08-12T06:18:00.985Z,20.9
2022-08-12T06:19:01.569Z,20.9
2022-08-12T06:20:22.413Z,20.9
2022-08-12T06:21:01.810Z,20.9
2022-08-12T06:22:00.754Z,21.1
2022-08-12T06:23:01.336Z,21.1
2022-08-12T06:24:01.557Z,21.2
2022-08-12T06:25:01.138Z,21.3
2022-08-12T06:26:00.736Z,21.3
2022-08-12T06:27:01.319Z,21.3
2022-08-12T06:28:06.000Z,21.4
2022-08-12T06:29:01.439Z,21.5
2022-08-12T06:30:07.631Z,21.5
2022-08-12T06:31:25.093Z,21.4
2022-08-12T06:32:01.123Z,21.5
2022-08-12T06:33:11.583Z,21.4
2022-08-12T06:35:24.436Z,21.6
2022-08-12T06:35:24.673Z,21.6
2022-08-12T06:36:01.397Z,21.7
2022-08-12T06:37:01.012Z,21.7
2022-08-12T06:38:01.574Z,21.7
2022-08-12T06:39:01.239Z,21.9
2022-08-12T06:40:03.791Z,21.9
2022-08-12T06:41:01.283Z,22
2022-08-12T06:42:02.252Z,22.1
2022-08-12T06:43:01.425Z,22
2022-08-12T06:44:05.418Z,22.2
2022-08-12T06:45:01.545Z,22.3
2022-08-12T06:46:01.126Z,22.3
2022-08-12T06:47:00.730Z,22.3
2022-08-12T06:48:01.296Z,22.4
2022-08-12T06:49:00.877Z,22.5
2022-08-12T06:50:01.450Z,22.6
2022-08-12T06:51:01.046Z,22.7
2022-08-12T06:52:01.607Z,22.7
2022-08-12T06:53:01.209Z,22.7
2022-08-12T06:54:00.782Z,22.8
2022-08-12T06:55:01.354Z,23
2022-08-12T06:56:00.963Z,22.9
2022-08-12T06:57:04.538Z,22.9
2022-08-12T06:58:07.169Z,23.1
2022-08-12T06:59:01.640Z,23
2022-08-12T07:00:01.243Z,23.2
2022-08-12T07:01:00.877Z,23.2
2022-08-12T07:02:01.407Z,23.2
2022-08-12T07:03:00.990Z,23.5
2022-08-12T07:04:09.436Z,23.5
2022-08-12T07:05:01.091Z,23.7
2022-08-12T07:06:01.674Z,23.8
2022-08-12T07:07:01.256Z,23.9
2022-08-12T07:08:00.856Z,24
2022-08-12T07:09:01.398Z,24
2022-08-12T07:10:07.265Z,24
2022-08-12T07:11:01.544Z,24
2022-08-12T07:12:01.131Z,24
2022-08-12T07:13:00.712Z,24
2022-08-12T07:14:02.800Z,24.2
2022-08-12T07:15:00.851Z,24.4
2022-08-12T07:16:01.459Z,24.4
2022-08-12T07:17:01.041Z,24.4
2022-08-12T07:18:01.620Z,24.4
2022-08-12T07:19:01.201Z,24.5
2022-08-12T07:20:04.420Z,24.4
2022-08-12T07:21:01.228Z,24.5
2022-08-12T07:22:02.492Z,24.4
2022-08-12T07:23:01.345Z,24.4
2022-08-12T07:24:00.932Z,24.4
2022-08-12T07:25:01.508Z,24.5
2022-08-12T07:26:01.109Z,24.6
2022-08-12T07:27:01.682Z,24.5
2022-08-12T07:28:01.265Z,24.7
2022-08-12T07:29:00.803Z,24.6
2022-08-12T07:30:04.479Z,24.7
2022-08-12T07:31:00.940Z,24.7
2022-08-12T07:32:01.519Z,24.7
2022-08-12T07:33:01.821Z,24.8
2022-08-12T07:34:01.487Z,25
2022-08-12T07:35:01.067Z,25
2022-08-12T07:36:01.673Z,25.1
2022-08-12T07:37:01.302Z,25.1
2022-08-12T07:38:00.843Z,25.1
2022-08-12T07:39:01.431Z,25.1
2022-08-12T07:40:01.462Z,25.1
2022-08-12T07:41:01.169Z,25.1
2022-08-12T07:42:00.767Z,25.1
2022-08-12T07:43:01.321Z,25.1
2022-08-12T07:44:04.459Z,25.1
2022-08-12T07:45:01.439Z,25.1
2022-08-12T07:46:01.041Z,25.2
2022-08-12T07:47:01.623Z,25.4
2022-08-12T07:48:01.205Z,25.4
2022-08-12T07:49:00.788Z,25.3
2022-08-12T07:50:04.094Z,25.4
2022-08-12T07:51:00.934Z,25.5
2022-08-12T07:52:01.517Z,25.4
2022-08-12T07:53:01.098Z,25.5
2022-08-12T07:54:02.882Z,25.5
2022-08-12T07:55:00.775Z,25.6
2022-08-12T07:56:01.375Z,25.5
2022-08-12T07:57:01.519Z,25.5
2022-08-12T07:58:01.105Z,25.4
2022-08-12T07:59:01.689Z,25.6
2022-08-12T08:00:01.287Z,25.6
2022-08-12T08:01:00.870Z,25.6
2022-08-12T08:02:01.509Z,25.7
2022-08-12T08:03:01.110Z,25.6
2022-08-12T08:04:01.682Z,25.6
2022-08-12T08:05:01.263Z,25.7
2022-08-12T08:06:00.842Z,25.6
2022-08-12T08:07:01.455Z,25.5
2022-08-12T08:08:01.044Z,25.4
2022-08-12T08:09:01.627Z,25.5
2022-08-12T08:10:01.226Z,25.6
2022-08-12T08:11:04.097Z,25.6
2022-08-12T08:12:01.361Z,25.8
2022-08-12T08:13:00.952Z,25.9
2022-08-12T08:14:01.536Z,26
2022-08-12T08:15:01.119Z,26
2022-08-12T08:16:03.626Z,25.9
2022-08-12T08:17:01.265Z,26
2022-08-12T08:18:00.848Z,26.2
2022-08-12T08:19:01.427Z,26.3
2022-08-12T08:20:03.433Z,26.3
2022-08-12T08:21:01.586Z,26.3
2022-08-12T08:22:01.172Z,26.2
2022-08-12T08:23:00.773Z,26.1
2022-08-12T08:24:04.771Z,26.1
2022-08-12T08:25:00.877Z,26.1
2022-08-12T08:26:01.456Z,26.2
2022-08-12T08:27:01.037Z,26.4
2022-08-12T08:28:01.639Z,26.5
2022-08-12T08:29:01.225Z,26.4
2022-08-12T08:30:00.825Z,26.4
2022-08-12T08:31:01.388Z,26.6
2022-08-12T08:32:00.972Z,26.7
2022-08-12T08:33:01.566Z,26.7
2022-08-12T08:34:14.485Z,26.6
2022-08-12T08:35:01.708Z,26.7
2022-08-12T08:36:02.134Z,26.9
2022-08-12T08:37:01.060Z,26.8
2022-08-12T08:38:01.451Z,26.8
2022-08-12T08:39:01.212Z,26.8
2022-08-12T08:40:00.795Z,27
2022-08-12T08:41:01.379Z,27.3
2022-08-12T08:42:13.657Z,27.2
2022-08-12T08:43:01.498Z,27.1
2022-08-12T08:44:01.153Z,27.1
2022-08-12T08:45:01.684Z,27.1
2022-08-12T08:46:01.264Z,27.1
2022-08-12T08:47:00.845Z,27.3
2022-08-12T08:48:01.426Z,27.4
2022-08-12T08:49:01.008Z,27.4
2022-08-12T08:50:01.616Z,27.5
2022-08-12T08:51:04.601Z,27.4
2022-08-12T08:52:01.740Z,27.4
2022-08-12T08:53:01.321Z,27.4
2022-08-12T08:54:00.917Z,27.4
2022-08-12T08:55:01.496Z,27.5
2022-08-12T08:56:04.841Z,27.5
2022-08-12T08:57:01.652Z,27.8
2022-08-12T08:58:01.239Z,27.8
2022-08-12T08:59:00.819Z,28
2022-08-12T09:00:01.400Z,27.9
2022-08-12T09:01:00.984Z,27.9
2022-08-12T09:02:01.699Z,27.8
2022-08-12T09:03:01.216Z,27.7
2022-08-12T09:04:21.623Z,27.8
2022-08-12T09:05:10.404Z,27.8
2022-08-12T09:06:01.945Z,27.8
2022-08-12T09:07:14.941Z,27.6
2022-08-12T09:08:09.221Z,27.7
2022-08-12T09:09:01.418Z,27.8
2022-08-12T09:10:01.821Z,27.9
2022-08-12T09:11:01.496Z,28
2022-08-12T09:13:01.466Z,27.9
2022-08-12T09:14:10.367Z,27.9
2022-08-12T09:15:01.148Z,27.9
2022-08-12T09:16:01.686Z,28.1
2022-08-12T09:17:00.948Z,27.9
2022-08-12T09:18:01.328Z,27.9
2022-08-12T09:19:01.078Z,27.8
2022-08-12T09:20:01.588Z,27.9
2022-08-12T09:21:02.098Z,28.3
2022-08-12T09:22:01.385Z,28.3
2022-08-12T09:23:00.969Z,28.3
2022-08-12T09:24:05.820Z,28.2
2022-08-12T09:25:01.316Z,28.2
2022-08-12T09:27:01.169Z,28.1
2022-08-12T09:28:04.409Z,28
2022-08-12T09:29:01.729Z,27.9
2022-08-12T09:30:09.254Z,27.9
2022-08-12T09:31:00.837Z,27.9
2022-08-12T09:32:04.504Z,28.2
2022-08-12T09:33:05.364Z,28.5
2022-08-12T09:34:25.066Z,28.6
2022-08-12T09:35:01.572Z,28.6
2022-08-12T09:36:03.419Z,28.8
2022-08-12T09:37:02.750Z,28.8
2022-08-12T09:38:01.638Z,28.7
2022-08-12T09:39:01.304Z,28.4
2022-08-12T09:40:15.602Z,28.3
2022-08-12T09:42:10.330Z,28.4
2022-08-12T09:42:10.344Z,28.3
2022-08-12T09:43:14.994Z,28.7
2022-08-12T09:44:01.647Z,28.7
2022-08-12T09:45:17.518Z,28.9
2022-08-12T09:46:05.789Z,29
2022-08-12T09:47:01.603Z,28.9
2022-08-12T09:48:01.733Z,28.8
2022-08-12T09:49:01.702Z,28.7
2022-08-12T09:50:01.244Z,28.5
2022-08-12T09:51:01.636Z,28.7
2022-08-12T09:52:01.200Z,28.8
2022-08-12T09:53:03.947Z,28.6
2022-08-12T09:54:06.119Z,28.6
2022-08-12T09:55:02.327Z,28.3
2022-08-12T09:56:07.457Z,28.3
2022-08-12T09:57:04.092Z,28.2
2022-08-12T09:58:08.652Z,28.3
2022-08-12T09:59:01.873Z,28.3
2022-08-12T10:00:14.244Z,28.4
2022-08-12T10:01:06.225Z,28.3
2022-08-12T10:02:43.753Z,28.4
2022-08-12T10:03:01.898Z,28.6
2022-08-12T10:04:03.586Z,28.7
2022-08-12T10:05:01.434Z,29
2022-08-12T10:06:20.861Z,29.1
2022-08-12T10:07:01.276Z,29.1
2022-08-12T10:08:00.859Z,29.1
2022-08-12T10:09:01.111Z,29
2022-08-12T10:10:01.092Z,29.1
2022-08-12T10:11:01.425Z,29
2022-08-12T10:12:11.019Z,29.1
2022-08-12T10:13:06.935Z,29.2
2022-08-12T10:14:01.659Z,29.5
2022-08-12T10:15:01.437Z,29.6
2022-08-12T10:16:04.943Z,29.5
2022-08-12T10:17:02.157Z,29.5
2022-08-12T10:18:06.725Z,29.3
2022-08-12T10:19:01.405Z,29.5
2022-08-12T10:20:01.632Z,29.5
2022-08-12T10:21:01.415Z,29.3
2022-08-12T10:22:00.996Z,29.4
2022-08-12T10:23:01.629Z,29.4
2022-08-12T10:24:01.255Z,29.4
2022-08-12T10:25:00.837Z,29.4
2022-08-12T10:26:18.869Z,29.3
2022-08-12T10:27:05.819Z,29.5
2022-08-12T10:28:04.373Z,29.6
2022-08-12T10:29:02.315Z,29.5
2022-08-12T10:30:39.171Z,29.2
2022-08-12T10:31:01.731Z,29.1
2022-08-12T10:32:20.384Z,29
2022-08-12T10:33:02.480Z,29.2
2022-08-12T10:34:06.282Z,29.3
2022-08-12T10:35:00.921Z,29.1
2022-08-12T10:36:01.506Z,29.1
2022-08-12T10:37:10.638Z,29.2
2022-08-12T10:38:33.114Z,29.1
2022-08-12T10:39:01.188Z,29.2
2022-08-12T10:40:08.409Z,29.1
2022-08-12T10:41:03.900Z,29.1
2022-08-12T10:42:01.005Z,29.2
2022-08-12T10:43:01.615Z,29.3
2022-08-12T10:44:01.220Z,29.2
2022-08-12T10:45:01.783Z,29.2
2022-08-12T10:46:01.388Z,28.9
2022-08-12T10:47:00.973Z,29
2022-08-12T10:48:01.921Z,29.2
2022-08-12T10:49:05.767Z,29
2022-08-12T10:50:28.450Z,29.4
2022-08-12T10:51:03.595Z,29.3
2022-08-12T10:52:05.058Z,29.4
2022-08-12T10:53:01.275Z,29.4
2022-08-12T10:54:02.166Z,29.5
2022-08-12T10:55:00.923Z,29.5
2022-08-12T10:56:02.037Z,29.7
2022-08-12T10:57:01.778Z,29.8
2022-08-12T10:58:13.883Z,29.7
2022-08-12T10:59:00.901Z,29.4
2022-08-12T11:00:32.223Z,29.4
2022-08-12T11:01:26.673Z,29.6
2022-08-12T11:04:17.524Z,29.3
2022-08-12T11:04:21.167Z,29.3
2022-08-12T11:04:21.535Z,29.1
2022-08-12T11:07:03.884Z,29.4
2022-08-12T11:07:04.337Z,29.4
2022-08-12T11:07:04.919Z,29.4
2022-08-12T11:08:33.197Z,29.3
2022-08-12T11:09:01.605Z,29.4
2022-08-12T11:10:02.317Z,29.6
2022-08-12T11:11:02.242Z,29.6
2022-08-12T11:12:08.626Z,29.5
2022-08-12T11:13:02.847Z,29.4
2022-08-12T11:14:01.602Z,29.5
2022-08-12T11:15:00.845Z,29.4
2022-08-12T11:16:04.527Z,29.5
2022-08-12T11:17:35.214Z,29.5
2022-08-12T11:18:03.172Z,29.4
2022-08-12T11:19:02.545Z,29.3
2022-08-12T11:20:01.849Z,29.7
2022-08-12T11:21:01.605Z,29.7
2022-08-12T11:22:03.196Z,29.7
2022-08-12T11:23:01.768Z,29.8
2022-08-12T11:24:01.819Z,29.9
2022-08-12T11:25:01.565Z,29.8
2022-08-12T11:26:05.278Z,29.5
2022-08-12T11:27:01.740Z,29.6
2022-08-12T11:28:01.187Z,29.4
2022-08-12T11:29:05.794Z,29.5
2022-08-12T11:30:02.723Z,29.5
2022-08-12T11:31:01.501Z,29.7
2022-08-12T11:32:02.237Z,30
2022-08-12T11:33:01.422Z,29.9
2022-08-12T11:34:06.930Z,29.7
2022-08-12T11:35:01.532Z,29.2
2022-08-12T11:36:01.115Z,29.2
2022-08-12T11:37:01.091Z,29.3
2022-08-12T11:38:01.795Z,29.2
2022-08-12T11:39:04.574Z,29.3
2022-08-12T11:40:00.894Z,29.3
2022-08-12T11:41:01.474Z,29.7
2022-08-12T11:42:01.124Z,29.8
2022-08-12T11:43:01.886Z,30
2022-08-12T11:44:01.980Z,30
2022-08-12T11:45:00.864Z,29.6
2022-08-12T11:46:01.443Z,30.1
2022-08-12T11:47:01.042Z,30.1
2022-08-12T11:48:01.608Z,30.2
2022-08-12T11:49:00.828Z,30.3
2022-08-12T11:50:01.385Z,30.2
2022-08-12T11:51:01.020Z,30.3
2022-08-12T11:52:01.624Z,30.4
2022-08-12T11:53:01.211Z,30.4
2022-08-12T11:54:01.453Z,30.3
2022-08-12T11:55:00.934Z,30.2
2022-08-12T11:56:01.517Z,30
2022-08-12T11:57:02.182Z,29.9
2022-08-12T11:58:09.367Z,29.9
2022-08-12T12:01:39.057Z,30.3
2022-08-12T12:02:04.855Z,30.3
2022-08-12T12:03:01.016Z,30.3
2022-08-12T12:04:01.344Z,30.4
2022-08-12T12:05:01.618Z,30.9
2022-08-12T12:06:01.155Z,30.7
2022-08-12T12:07:06.871Z,30.5
2022-08-12T12:08:36.955Z,30.6
2022-08-12T12:09:00.838Z,30.7
2022-08-12T12:10:01.423Z,30.8
2022-08-12T12:11:01.658Z,31
2022-08-12T12:12:01.262Z,30.8
2022-08-12T12:13:00.829Z,30.5
2022-08-12T12:14:07.108Z,30.3
2022-08-12T12:15:04.901Z,30.5
2022-08-12T12:16:01.452Z,30.6
2022-08-12T12:17:01.015Z,30.7
2022-08-12T12:18:01.619Z,30.8
2022-08-12T12:19:01.156Z,30.5
2022-08-12T12:20:01.606Z,30.4
2022-08-12T12:21:01.186Z,30.1
2022-08-12T12:22:01.788Z,30.2
2022-08-12T12:23:01.386Z,30.5
2022-08-12T12:24:01.025Z,30.5
2022-08-12T12:25:09.100Z,30.5
2022-08-12T12:26:07.678Z,30.2
2022-08-12T12:27:01.626Z,30.3
2022-08-12T12:28:05.336Z,30.1
2022-08-12T12:29:03.338Z,30
2022-08-12T12:30:15.913Z,29.9
2022-08-12T12:31:01.634Z,29.9
2022-08-12T12:32:07.011Z,29.9
2022-08-12T12:33:01.715Z,29.8
2022-08-12T12:34:01.176Z,29.8
2022-08-12T12:35:13.407Z,29.9
2022-08-12T12:36:06.933Z,30.4
2022-08-12T12:37:01.812Z,30.6
2022-08-12T12:38:04.808Z,30.3
2022-08-12T12:39:00.955Z,30.2
2022-08-12T12:40:01.610Z,30.1
2022-08-12T12:41:09.859Z,30.3
2022-08-12T12:42:44.446Z,30.5
2022-08-12T12:43:04.926Z,30.5
2022-08-12T12:44:04.270Z,30.3
2022-08-12T12:45:01.342Z,30.2
2022-08-12T12:46:00.922Z,30.1
2022-08-12T12:47:01.502Z,29.8
2022-08-12T12:48:01.083Z,29.8
2022-08-12T12:49:01.664Z,29.9
2022-08-12T12:50:01.227Z,29.9
2022-08-12T12:51:01.768Z,30
2022-08-12T12:52:19.188Z,30.1
2022-08-12T12:53:00.887Z,30
2022-08-12T12:54:07.312Z,30.2
2022-08-12T12:55:01.028Z,30.1
2022-08-12T12:56:01.610Z,30.2
2022-08-12T12:57:01.193Z,30.2
2022-08-12T12:58:01.781Z,30.4
2022-08-12T12:59:01.365Z,30.5
2022-08-12T13:00:00.963Z,30.4
2022-08-12T13:01:04.585Z,30.4
2022-08-12T13:02:01.122Z,30.3
2022-08-12T13:03:02.177Z,30.3
2022-08-12T13:04:01.664Z,30.3
2022-08-12T13:05:01.004Z,30.2
2022-08-12T13:06:01.162Z,30.3
2022-08-12T13:07:01.762Z,30.3
2022-08-12T13:08:01.834Z,30.3
2022-08-12T13:09:02.831Z,30.6
2022-08-12T13:10:01.931Z,30.5
2022-08-12T13:11:01.755Z,30.4
2022-08-12T13:12:01.552Z,30.6
2022-08-12T13:13:01.177Z,30.8
2022-08-12T13:14:08.290Z,30.4
2022-08-12T13:15:01.259Z,30.3
2022-08-12T13:16:01.861Z,30.3
2022-08-12T13:17:02.507Z,30.3
2022-08-12T13:18:02.679Z,30.2
2022-08-12T13:19:01.658Z,30.3
2022-08-12T13:20:01.324Z,30.3
2022-08-12T13:21:00.923Z,30.4
2022-08-12T13:22:01.505Z,30.5
2022-08-12T13:23:01.085Z,30.4
2022-08-12T13:24:01.690Z,30.3
2022-08-12T13:25:01.271Z,30.3
2022-08-12T13:26:01.488Z,30.1